sensor_id;sensor_type;location;lat;lon;timestamp;pressure;altitude;pressure_sealevel;temperature;humidity
59411;BME280;45215;32.610;-115.482;2022-07-04T00:00:04;100418.56;;;20.20;37.82
59411;BME280;45215;32.610;-115.482;2022-07-04T00:02:30;100420.34;;;20.05;36.19
59411;BME280;45215;32.610;-115.482;2022-07-04T00:04:56;100416.34;;;19.86;35.08
59411;BME280;45215;32.610;-115.482;2022-07-04T00:07:21;100432.63;;;19.70;34.65
59411;BME280;45215;32.610;-115.482;2022-07-04T00:09:47;100420.34;;;19.52;34.35
59411;BME280;45215;32.610;-115.482;2022-07-04T00:12:13;100416.94;;;19.35;34.14
59411;BME280;45215;32.610;-115.482;2022-07-04T00:14:39;100410.44;;;19.22;34.01
59411;BME280;45215;32.610;-115.482;2022-07-04T00:17:05;100416.03;;;19.66;44.17
59411;BME280;45215;32.610;-115.482;2022-07-04T00:19:31;100422.88;;;20.07;40.41
59411;BME280;45215;32.610;-115.482;2022-07-04T00:21:56;100412.25;;;19.90;37.25
59411;BME280;45215;32.610;-115.482;2022-07-04T00:24:22;100406.38;;;19.72;35.93
59411;BME280;45215;32.610;-115.482;2022-07-04T00:26:48;100405.22;;;19.51;35.14
59411;BME280;45215;32.610;-115.482;2022-07-04T00:29:14;100416.75;;;19.37;34.58
59411;BME280;45215;32.610;-115.482;2022-07-04T00:31:40;100409.09;;;19.26;34.16
59411;BME280;45215;32.610;-115.482;2022-07-04T00:34:06;100413.78;;;19.32;40.36
59411;BME280;45215;32.610;-115.482;2022-07-04T00:36:32;100411.88;;;19.93;43.86
59411;BME280;45215;32.610;-115.482;2022-07-04T00:38:57;100413.00;;;19.99;38.58
59411;BME280;45215;32.610;-115.482;2022-07-04T00:41:23;100406.31;;;19.80;36.38
59411;BME280;45215;32.610;-115.482;2022-07-04T00:44:09;100401.44;;;19.60;35.36
59411;BME280;45215;32.610;-115.482;2022-07-04T00:46:35;100404.44;;;19.43;34.61
59411;BME280;45215;32.610;-115.482;2022-07-04T00:49:05;100405.13;;;19.36;34.41
59411;BME280;45215;32.610;-115.482;2022-07-04T00:51:31;100409.22;;;19.55;41.21
59411;BME280;45215;32.610;-115.482;2022-07-04T00:53:57;100401.78;;;20.10;42.27
59411;BME280;45215;32.610;-115.482;2022-07-04T00:56:23;100405.41;;;20.02;37.98
59411;BME280;45215;32.610;-115.482;2022-07-04T00:58:49;100401.28;;;19.77;36.29
59411;BME280;45215;32.610;-115.482;2022-07-04T01:01:15;100398.59;;;19.54;35.33
59411;BME280;45215;32.610;-115.482;2022-07-04T01:03:42;100405.13;;;19.36;34.76
59411;BME280;45215;32.610;-115.482;2022-07-04T01:06:07;100408.44;;;19.24;34.33
59411;BME280;45215;32.610;-115.482;2022-07-04T01:08:39;100410.81;;;19.65;44.53
59411;BME280;45215;32.610;-115.482;2022-07-04T01:11:06;100411.16;;;19.99;40.27
59411;BME280;45215;32.610;-115.482;2022-07-04T01:13:31;100403.41;;;19.81;37.40
59411;BME280;45215;32.610;-115.482;2022-07-04T01:15:57;100403.09;;;19.62;35.94
59411;BME280;45215;32.610;-115.482;2022-07-04T01:18:23;100421.41;;;19.43;34.94
59411;BME280;45215;32.610;-115.482;2022-07-04T01:20:49;100410.78;;;19.27;34.47
59411;BME280;45215;32.610;-115.482;2022-07-04T01:23:15;100414.31;;;19.65;44.49
59411;BME280;45215;32.610;-115.482;2022-07-04T01:25:41;100420.91;;;20.00;40.45
59411;BME280;45215;32.610;-115.482;2022-07-04T01:28:07;100415.00;;;19.82;37.25
59411;BME280;45215;32.610;-115.482;2022-07-04T01:30:33;100411.91;;;19.55;35.85
59411;BME280;45215;32.610;-115.482;2022-07-04T01:32:59;100409.69;;;19.36;34.98
59411;BME280;45215;32.610;-115.482;2022-07-04T01:35:25;100412.66;;;19.18;34.58
59411;BME280;45215;32.610;-115.482;2022-07-04T01:37:51;100411.91;;;19.55;44.99
59411;BME280;45215;32.610;-115.482;2022-07-04T01:40:17;100413.94;;;19.91;40.65
59411;BME280;45215;32.610;-115.482;2022-07-04T01:42:43;100416.78;;;19.75;37.34
59411;BME280;45215;32.610;-115.482;2022-07-04T01:45:09;100415.13;;;19.51;35.79
59411;BME280;45215;32.610;-115.482;2022-07-04T01:47:36;100412.78;;;19.25;35.12
59411;BME280;45215;32.610;-115.482;2022-07-04T01:50:02;100415.50;;;19.16;39.20
59411;BME280;45215;32.610;-115.482;2022-07-04T01:52:28;100429.56;;;19.73;45.11
59411;BME280;45215;32.610;-115.482;2022-07-04T01:54:54;100428.09;;;19.85;39.06
59411;BME280;45215;32.610;-115.482;2022-07-04T01:57:20;100427.97;;;19.64;36.40
59411;BME280;45215;32.610;-115.482;2022-07-04T01:59:45;100426.28;;;19.40;35.46
59411;BME280;45215;32.610;-115.482;2022-07-04T02:02:29;100432.31;;;19.19;37.70
59411;BME280;45215;32.610;-115.482;2022-07-04T02:04:55;100438.06;;;20.22;41.46
59411;BME280;45215;32.610;-115.482;2022-07-04T02:07:21;100439.88;;;20.81;36.63
59411;BME280;45215;32.610;-115.482;2022-07-04T02:09:47;100437.94;;;20.31;35.37
59411;BME280;45215;32.610;-115.482;2022-07-04T02:12:12;100439.97;;;20.14;34.09
59411;BME280;45215;32.610;-115.482;2022-07-04T02:14:57;100445.94;;;19.86;33.92
59411;BME280;45215;32.610;-115.482;2022-07-04T02:17:23;100455.28;;;20.13;43.83
59411;BME280;45215;32.610;-115.482;2022-07-04T02:19:48;100446.78;;;20.24;39.95
59411;BME280;45215;32.610;-115.482;2022-07-04T02:22:15;100435.84;;;19.88;37.15
59411;BME280;45215;32.610;-115.482;2022-07-04T02:24:41;100450.41;;;19.56;36.16
59411;BME280;45215;32.610;-115.482;2022-07-04T02:27:07;100448.91;;;19.30;38.99
59411;BME280;45215;32.610;-115.482;2022-07-04T02:29:33;100456.16;;;19.91;45.00
59411;BME280;45215;32.610;-115.482;2022-07-04T02:31:59;100455.53;;;20.03;39.32
59411;BME280;45215;32.610;-115.482;2022-07-04T02:34:25;100460.94;;;19.66;37.17
59411;BME280;45215;32.610;-115.482;2022-07-04T02:36:51;100453.28;;;19.31;35.83
59411;BME280;45215;32.610;-115.482;2022-07-04T02:39:17;100458.50;;;19.25;42.56
59411;BME280;45215;32.610;-115.482;2022-07-04T02:41:43;100463.53;;;19.74;44.20
59411;BME280;45215;32.610;-115.482;2022-07-04T02:44:08;100465.59;;;19.72;38.81
59411;BME280;45215;32.610;-115.482;2022-07-04T02:46:35;100464.16;;;19.38;36.90
59411;BME280;45215;32.610;-115.482;2022-07-04T02:49:02;100466.47;;;19.10;36.50
59411;BME280;45215;32.610;-115.482;2022-07-04T02:51:28;100475.38;;;19.42;46.43
59411;BME280;45215;32.610;-115.482;2022-07-04T02:53:54;100473.66;;;19.72;41.28
59411;BME280;45215;32.610;-115.482;2022-07-04T02:56:19;100473.41;;;19.58;37.83
59411;BME280;45215;32.610;-115.482;2022-07-04T02:58:45;100476.63;;;19.31;36.40
59411;BME280;45215;32.610;-115.482;2022-07-04T03:01:11;100475.66;;;19.24;42.84
59411;BME280;45215;32.610;-115.482;2022-07-04T03:03:40;100480.72;;;19.73;45.08
59411;BME280;45215;32.610;-115.482;2022-07-04T03:06:07;100485.16;;;19.66;39.50
59411;BME280;45215;32.610;-115.482;2022-07-04T03:08:33;100481.84;;;19.32;37.67
59411;BME280;45215;32.610;-115.482;2022-07-04T03:10:59;100482.75;;;19.08;37.39
59411;BME280;45215;32.610;-115.482;2022-07-04T03:13:25;100494.34;;;19.48;46.84
59411;BME280;45215;32.610;-115.482;2022-07-04T03:15:51;100496.13;;;19.79;42.19
59411;BME280;45215;32.610;-115.482;2022-07-04T03:18:18;100494.84;;;19.52;38.14
59411;BME280;45215;32.610;-115.482;2022-07-04T03:20:44;100494.81;;;19.21;37.05
59411;BME280;45215;32.610;-115.482;2022-07-04T03:23:09;100500.72;;;19.16;43.16
59411;BME280;45215;32.610;-115.482;2022-07-04T03:25:35;100498.41;;;19.67;45.42
59411;BME280;45215;32.610;-115.482;2022-07-04T03:28:02;100502.25;;;19.73;39.66
59411;BME280;45215;32.610;-115.482;2022-07-04T03:30:28;100497.03;;;19.48;38.51
59411;BME280;45215;32.610;-115.482;2022-07-04T03:32:54;100504.09;;;19.72;46.22
59411;BME280;45215;32.610;-115.482;2022-07-04T03:35:19;100510.66;;;20.16;48.63
59411;BME280;45215;32.610;-115.482;2022-07-04T03:37:45;100507.94;;;20.54;49.22
59411;BME280;45215;32.610;-115.482;2022-07-04T03:40:11;100510.25;;;20.86;50.23
59411;BME280;45215;32.610;-115.482;2022-07-04T03:42:37;100511.91;;;21.17;49.71
59411;BME280;45215;32.610;-115.482;2022-07-04T03:45:04;100515.31;;;21.41;49.11
59411;BME280;45215;32.610;-115.482;2022-07-04T03:47:31;100521.75;;;21.61;48.71
59411;BME280;45215;32.610;-115.482;2022-07-04T03:49:57;100524.63;;;21.81;47.92
59411;BME280;45215;32.610;-115.482;2022-07-04T03:52:22;100529.63;;;21.99;47.59
59411;BME280;45215;32.610;-115.482;2022-07-04T03:54:48;100537.25;;;22.17;46.13
59411;BME280;45215;32.610;-115.482;2022-07-04T03:57:14;100533.72;;;21.73;39.94
59411;BME280;45215;32.610;-115.482;2022-07-04T03:59:40;100538.50;;;20.90;37.62
59411;BME280;45215;32.610;-115.482;2022-07-04T04:02:06;100536.78;;;20.30;37.12
59411;BME280;45215;32.610;-115.482;2022-07-04T04:04:31;100530.88;;;20.49;46.54
59411;BME280;45215;32.610;-115.482;2022-07-04T04:07:16;100543.72;;;20.77;43.15
59411;BME280;45215;32.610;-115.482;2022-07-04T04:09:41;100550.63;;;20.27;39.43
59411;BME280;45215;32.610;-115.482;2022-07-04T04:12:07;100562.09;;;20.44;48.93
59411;BME280;45215;32.610;-115.482;2022-07-04T04:14:33;100552.34;;;20.72;44.96
59411;BME280;45215;32.610;-115.482;2022-07-04T04:16:59;100551.94;;;20.31;39.76
59411;BME280;45215;32.610;-115.482;2022-07-04T04:19:24;100560.97;;;20.38;48.90
59411;BME280;45215;32.610;-115.482;2022-07-04T04:21:50;100573.84;;;20.81;48.96
59411;BME280;45215;32.610;-115.482;2022-07-04T04:24:16;100570.50;;;21.23;46.96
59411;BME280;45215;32.610;-115.482;2022-07-04T04:26:42;100565.97;;;21.60;45.37
59411;BME280;45215;32.610;-115.482;2022-07-04T04:29:08;100580.03;;;21.92;44.93
59411;BME280;45215;32.610;-115.482;2022-07-04T04:31:33;100577.41;;;22.20;43.77
59411;BME280;45215;32.610;-115.482;2022-07-04T04:33:59;100583.84;;;22.47;43.04
59411;BME280;45215;32.610;-115.482;2022-07-04T04:36:25;100589.59;;;22.65;42.38
59411;BME280;45215;32.610;-115.482;2022-07-04T04:38:51;100594.75;;;22.82;42.12
59411;BME280;45215;32.610;-115.482;2022-07-04T04:41:16;100599.22;;;22.96;41.17
59411;BME280;45215;32.610;-115.482;2022-07-04T04:43:42;100602.19;;;23.08;40.76
59411;BME280;45215;32.610;-115.482;2022-07-04T04:46:09;100599.22;;;22.46;36.55
59411;BME280;45215;32.610;-115.482;2022-07-04T04:48:35;100594.34;;;21.56;38.39
59411;BME280;45215;32.610;-115.482;2022-07-04T04:51:00;100606.06;;;21.63;45.68
59411;BME280;45215;32.610;-115.482;2022-07-04T04:53:26;100601.34;;;21.65;40.37
59411;BME280;45215;32.610;-115.482;2022-07-04T04:55:52;100605.88;;;21.28;44.35
59411;BME280;45215;32.610;-115.482;2022-07-04T04:58:19;100602.44;;;21.56;44.65
59411;BME280;45215;32.610;-115.482;2022-07-04T05:00:44;100598.13;;;21.40;38.87
59411;BME280;45215;32.610;-115.482;2022-07-04T05:03:11;100608.84;;;21.33;45.95
59411;BME280;45215;32.610;-115.482;2022-07-04T05:05:37;100600.84;;;21.61;42.18
59411;BME280;45215;32.610;-115.482;2022-07-04T05:08:03;100597.19;;;21.18;39.40
59411;BME280;45215;32.610;-115.482;2022-07-04T05:10:29;100609.38;;;21.29;45.40
59411;BME280;45215;32.610;-115.482;2022-07-04T05:12:54;100604.41;;;21.47;40.78
59411;BME280;45215;32.610;-115.482;2022-07-04T05:15:20;100612.47;;;21.11;43.37
59411;BME280;45215;32.610;-115.482;2022-07-04T05:17:46;100609.47;;;21.35;44.49
59411;BME280;45215;32.610;-115.482;2022-07-04T05:20:12;100613.19;;;21.34;38.96
59411;BME280;45215;32.610;-115.482;2022-07-04T05:22:38;100613.28;;;21.26;45.20
59411;BME280;45215;32.610;-115.482;2022-07-04T05:25:04;100619.03;;;21.53;41.03
59411;BME280;45215;32.610;-115.482;2022-07-04T05:27:30;100622.22;;;21.12;39.46
59411;BME280;45215;32.610;-115.482;2022-07-04T05:29:56;100629.84;;;21.23;44.92
59411;BME280;45215;32.610;-115.482;2022-07-04T05:32:22;100631.72;;;21.37;40.01
59411;BME280;45215;32.610;-115.482;2022-07-04T05:34:48;100625.03;;;21.04;43.84
59411;BME280;45215;32.610;-115.482;2022-07-04T05:37:14;100630.44;;;21.33;44.18
59411;BME280;45215;32.610;-115.482;2022-07-04T05:39:40;100635.63;;;21.35;38.82
59411;BME280;45215;32.610;-115.482;2022-07-04T05:42:06;100635.91;;;21.25;44.79
59411;BME280;45215;32.610;-115.482;2022-07-04T05:44:32;100641.47;;;21.53;41.42
59411;BME280;45215;32.610;-115.482;2022-07-04T05:46:57;100640.19;;;21.20;41.29
59411;BME280;45215;32.610;-115.482;2022-07-04T05:49:23;100657.03;;;21.36;43.57
59411;BME280;45215;32.610;-115.482;2022-07-04T05:51:49;100648.47;;;21.48;39.10
59411;BME280;45215;32.610;-115.482;2022-07-04T05:54:15;100643.06;;;21.18;44.06
59411;BME280;45215;32.610;-115.482;2022-07-04T05:56:41;100639.06;;;21.44;43.34
59411;BME280;45215;32.610;-115.482;2022-07-04T05:59:08;100640.44;;;21.25;37.58
59411;BME280;45215;32.610;-115.482;2022-07-04T06:01:34;100642.06;;;21.19;44.55
59411;BME280;45215;32.610;-115.482;2022-07-04T06:04:00;100632.28;;;21.48;40.40
59411;BME280;45215;32.610;-115.482;2022-07-04T06:06:26;100635.25;;;21.23;42.02
59411;BME280;45215;32.610;-115.482;2022-07-04T06:08:52;100632.44;;;21.46;43.04
59411;BME280;45215;32.610;-115.482;2022-07-04T06:11:17;100636.19;;;21.45;38.09
59411;BME280;45215;32.610;-115.482;2022-07-04T06:13:43;100636.16;;;21.30;44.02
59411;BME280;45215;32.610;-115.482;2022-07-04T06:16:09;100636.53;;;21.57;41.17
59411;BME280;45215;32.610;-115.482;2022-07-04T06:18:35;100633.28;;;21.32;41.52
59411;BME280;45215;32.610;-115.482;2022-07-04T06:21:01;100634.09;;;21.47;42.72
59411;BME280;45215;32.610;-115.482;2022-07-04T06:23:27;100630.19;;;21.50;38.59
59411;BME280;45215;32.610;-115.482;2022-07-04T06:25:53;100634.13;;;21.32;43.77
59411;BME280;45215;32.610;-115.482;2022-07-04T06:28:19;100630.75;;;21.60;41.71
59411;BME280;45215;32.610;-115.482;2022-07-04T06:30:45;100633.75;;;21.35;39.72
59411;BME280;45215;32.610;-115.482;2022-07-04T06:33:11;100632.66;;;21.45;43.03
59411;BME280;45215;32.610;-115.482;2022-07-04T06:35:36;100628.41;;;21.72;41.52
59411;BME280;45215;32.610;-115.482;2022-07-04T06:38:12;100628.81;;;22.05;40.77
59411;BME280;45215;32.610;-115.482;2022-07-04T06:40:39;100642.81;;;22.37;40.03
59411;BME280;45215;32.610;-115.482;2022-07-04T06:43:05;100632.84;;;22.59;39.90
59411;BME280;45215;32.610;-115.482;2022-07-04T06:45:31;100640.47;;;22.77;39.45
59411;BME280;45215;32.610;-115.482;2022-07-04T06:47:56;100650.22;;;22.99;38.64
59411;BME280;45215;32.610;-115.482;2022-07-04T06:50:22;100649.44;;;23.12;38.47
59411;BME280;45215;32.610;-115.482;2022-07-04T06:52:48;100650.59;;;23.24;38.29
59411;BME280;45215;32.610;-115.482;2022-07-04T06:55:14;100662.56;;;23.15;36.53
59411;BME280;45215;32.610;-115.482;2022-07-04T06:57:40;100665.00;;;22.32;34.44
59411;BME280;45215;32.610;-115.482;2022-07-04T07:00:06;100666.78;;;21.52;32.88
59411;BME280;45215;32.610;-115.482;2022-07-04T07:02:36;100664.41;;;20.90;34.41
59411;BME280;45215;32.610;-115.482;2022-07-04T07:05:02;100668.75;;;21.14;43.91
59411;BME280;45215;32.610;-115.482;2022-07-04T07:07:28;100666.97;;;21.06;37.82
59411;BME280;45215;32.610;-115.482;2022-07-04T07:09:53;100658.28;;;20.58;35.01
59411;BME280;45215;32.610;-115.482;2022-07-04T07:12:20;100665.16;;;20.15;33.72
59411;BME280;45215;32.610;-115.482;2022-07-04T07:14:46;100668.84;;;20.22;42.77
59411;BME280;45215;32.610;-115.482;2022-07-04T07:17:11;100668.97;;;20.52;40.45
59411;BME280;45215;32.610;-115.482;2022-07-04T07:19:37;100668.38;;;20.18;36.48
59411;BME280;45215;32.610;-115.482;2022-07-04T07:22:03;100665.91;;;19.77;34.25
59411;BME280;45215;32.610;-115.482;2022-07-04T07:24:29;100666.47;;;19.56;40.19
59411;BME280;45215;32.610;-115.482;2022-07-04T07:26:56;100670.97;;;20.03;43.03
59411;BME280;45215;32.610;-115.482;2022-07-04T07:29:22;100658.25;;;19.89;37.81
59411;BME280;45215;32.610;-115.482;2022-07-04T07:31:48;100661.78;;;19.50;35.15
59411;BME280;45215;32.610;-115.482;2022-07-04T07:34:14;100653.47;;;19.21;38.26
59411;BME280;45215;32.610;-115.482;2022-07-04T07:36:40;100666.44;;;19.65;45.33
59411;BME280;45215;32.610;-115.482;2022-07-04T07:39:06;100658.03;;;19.68;38.47
59411;BME280;45215;32.610;-115.482;2022-07-04T07:41:32;100669.09;;;19.33;35.80
59411;BME280;45215;32.610;-115.482;2022-07-04T07:43:58;100657.69;;;19.15;41.57
59411;BME280;45215;32.610;-115.482;2022-07-04T07:46:23;100667.16;;;19.58;43.70
59411;BME280;45215;32.610;-115.482;2022-07-04T07:48:49;100661.47;;;19.45;37.96
59411;BME280;45215;32.610;-115.482;2022-07-04T07:51:15;100650.16;;;19.02;35.69
59411;BME280;45215;32.610;-115.482;2022-07-04T07:53:41;100662.53;;;19.20;45.09
59411;BME280;45215;32.610;-115.482;2022-07-04T07:56:07;100666.19;;;19.51;41.84
59411;BME280;45215;32.610;-115.482;2022-07-04T07:58:33;100667.28;;;19.18;37.45
59411;BME280;45215;32.610;-115.482;2022-07-04T08:00:59;100678.19;;;19.16;44.59
59411;BME280;45215;32.610;-115.482;2022-07-04T08:03:27;100669.16;;;19.56;43.93
59411;BME280;45215;32.610;-115.482;2022-07-04T08:06:11;100666.59;;;19.24;38.11
59411;BME280;45215;32.610;-115.482;2022-07-04T08:08:37;100663.44;;;19.04;43.04
59411;BME280;45215;32.610;-115.482;2022-07-04T08:11:03;100671.25;;;19.46;46.77
59411;BME280;45215;32.610;-115.482;2022-07-04T08:13:29;100664.22;;;19.37;39.61
59411;BME280;45215;32.610;-115.482;2022-07-04T08:15:55;100656.88;;;19.06;42.00
59411;BME280;45215;32.610;-115.482;2022-07-04T08:18:21;100658.16;;;19.43;48.05
59411;BME280;45215;32.610;-115.482;2022-07-04T08:20:48;100661.81;;;19.42;40.62
59411;BME280;45215;32.610;-115.482;2022-07-04T08:23:14;100663.44;;;19.04;39.54
59411;BME280;45215;32.610;-115.482;2022-07-04T08:25:40;100663.22;;;19.30;47.59
59411;BME280;45215;32.610;-115.482;2022-07-04T08:28:06;100661.81;;;19.42;41.38
59411;BME280;45215;32.610;-115.482;2022-07-04T08:30:32;100653.16;;;19.07;38.99
59411;BME280;45215;32.610;-115.482;2022-07-04T08:32:58;100656.19;;;19.29;47.48
59411;BME280;45215;32.610;-115.482;2022-07-04T08:35:24;100652.75;;;19.43;42.11
59411;BME280;45215;32.610;-115.482;2022-07-04T08:37:50;100647.78;;;19.07;38.06
59411;BME280;45215;32.610;-115.482;2022-07-04T08:40:22;100650.78;;;19.21;47.30
59411;BME280;45215;32.610;-115.482;2022-07-04T08:42:48;100649.72;;;19.46;42.40
59411;BME280;45215;32.610;-115.482;2022-07-04T08:45:14;100648.81;;;19.06;38.10
59411;BME280;45215;32.610;-115.482;2022-07-04T08:47:40;100652.81;;;19.10;46.62
59411;BME280;45215;32.610;-115.482;2022-07-04T08:50:09;100646.88;;;19.40;43.15
59411;BME280;45215;32.610;-115.482;2022-07-04T08:52:38;100639.06;;;19.05;38.38
59411;BME280;45215;32.610;-115.482;2022-07-04T08:55:05;100647.09;;;19.13;47.55
59411;BME280;45215;32.610;-115.482;2022-07-04T08:57:50;100645.72;;;19.34;42.10
59411;BME280;45215;32.610;-115.482;2022-07-04T09:00:35;100648.16;;;18.96;41.94
59411;BME280;45215;32.610;-115.482;2022-07-04T09:03:01;100651.97;;;19.26;47.76
59411;BME280;45215;32.610;-115.482;2022-07-04T09:05:27;100650.44;;;19.32;41.18
59411;BME280;45215;32.610;-115.482;2022-07-04T09:07:53;100647.81;;;18.91;40.03
59411;BME280;45215;32.610;-115.482;2022-07-04T09:10:19;100650.13;;;19.19;48.13
59411;BME280;45215;32.610;-115.482;2022-07-04T09:12:46;100649.09;;;19.28;41.46
59411;BME280;45215;32.610;-115.482;2022-07-04T09:15:11;100648.16;;;18.88;39.43
59411;BME280;45215;32.610;-115.482;2022-07-04T09:17:37;100648.13;;;19.12;48.06
59411;BME280;45215;32.610;-115.482;2022-07-04T09:20:14;100647.44;;;19.27;42.11
59411;BME280;45215;32.610;-115.482;2022-07-04T09:22:41;100646.97;;;18.90;42.60
59411;BME280;45215;32.610;-115.482;2022-07-04T09:25:06;100652.47;;;19.22;48.05
59411;BME280;45215;32.610;-115.482;2022-07-04T09:27:34;100648.78;;;19.23;41.01
59411;BME280;45215;32.610;-115.482;2022-07-04T09:30:00;100653.88;;;18.85;42.76
59411;BME280;45215;32.610;-115.482;2022-07-04T09:32:36;100653.81;;;19.18;47.89
59411;BME280;45215;32.610;-115.482;2022-07-04T09:35:07;100648.13;;;19.12;40.21
59411;BME280;45215;32.610;-115.482;2022-07-04T09:37:43;100647.53;;;18.61;38.64
59411;BME280;45215;32.610;-115.482;2022-07-04T09:40:22;100656.06;;;18.89;48.05
59411;BME280;45215;32.610;-115.482;2022-07-04T09:42:48;100649.78;;;19.13;42.43
59411;BME280;45215;32.610;-115.482;2022-07-04T09:45:13;100651.53;;;18.74;39.03
59411;BME280;45215;32.610;-115.482;2022-07-04T09:47:40;100654.72;;;18.93;47.64
59411;BME280;45215;32.610;-115.482;2022-07-04T09:50:08;100647.78;;;19.15;42.64
59411;BME280;45215;32.610;-115.482;2022-07-04T09:52:54;100648.84;;;18.74;38.19
59411;BME280;45215;32.610;-115.482;2022-07-04T09:55:27;100654.22;;;18.90;47.41
59411;BME280;45215;32.610;-115.482;2022-07-04T09:57:53;100659.38;;;19.16;42.86
59411;BME280;45215;32.610;-115.482;2022-07-04T10:02:45;100659.94;;;18.87;47.69
59411;BME280;45215;32.610;-115.482;2022-07-04T10:05:11;100649.97;;;19.12;43.13
59411;BME280;45215;32.610;-115.482;2022-07-04T10:07:37;100654.75;;;18.69;38.33
59411;BME280;45215;32.610;-115.482;2022-07-04T10:10:25;100658.28;;;18.45;43.77
59411;BME280;45215;32.610;-115.482;2022-07-04T10:12:52;100668.00;;;18.95;47.71
59411;BME280;45215;32.610;-115.482;2022-07-04T10:15:18;100651.03;;;18.86;40.22
59411;BME280;45215;32.610;-115.482;2022-07-04T10:17:44;100660.63;;;18.40;40.64
59411;BME280;45215;32.610;-115.482;2022-07-04T10:20:13;100666.00;;;18.73;47.99
59411;BME280;45215;32.610;-115.482;2022-07-04T10:22:39;100663.09;;;18.99;43.14
59411;BME280;45215;32.610;-115.482;2022-07-04T10:25:05;100663.31;;;18.56;38.31
59411;BME280;45215;32.610;-115.482;2022-07-04T10:27:32;100666.16;;;18.63;46.54
59411;BME280;45215;32.610;-115.482;2022-07-04T10:29:58;100658.06;;;19.04;44.97
59411;BME280;45215;32.610;-115.482;2022-07-04T10:32:25;100655.75;;;18.76;39.28
59411;BME280;45215;32.610;-115.482;2022-07-04T10:34:52;100669.69;;;18.55;44.55
59411;BME280;45215;32.610;-115.482;2022-07-04T10:37:17;100676.06;;;18.95;47.74
59411;BME280;45215;32.610;-115.482;2022-07-04T10:39:43;100660.28;;;18.92;40.79
59411;BME280;45215;32.610;-115.482;2022-07-04T10:42:09;100672.38;;;18.72;44.91
59411;BME280;45215;32.610;-115.482;2022-07-04T10:44:48;100673.16;;;19.13;45.96
59411;BME280;45215;32.610;-115.482;2022-07-04T10:47:24;100667.50;;;18.91;39.61
59411;BME280;45215;32.610;-115.482;2022-07-04T10:49:52;100680.28;;;18.73;45.89
59411;BME280;45215;32.610;-115.482;2022-07-04T10:52:18;100678.03;;;19.09;45.58
59411;BME280;45215;32.610;-115.482;2022-07-04T10:54:44;100677.91;;;18.86;39.47
59411;BME280;45215;32.610;-115.482;2022-07-04T10:59:36;100685.09;;;19.02;47.01
59411;BME280;45215;32.610;-115.482;2022-07-04T11:07:15;100690.13;;;19.13;45.27
59411;BME280;45215;32.610;-115.482;2022-07-04T11:09:41;100690.00;;;18.90;39.27
59411;BME280;45215;32.610;-115.482;2022-07-04T11:12:08;100694.53;;;18.74;45.85
59411;BME280;45215;32.610;-115.482;2022-07-04T11:17:00;100699.41;;;18.95;39.85
59411;BME280;45215;32.610;-115.482;2022-07-04T11:19:26;100699.91;;;18.74;46.26
59411;BME280;45215;32.610;-115.482;2022-07-04T11:21:55;100702.91;;;19.11;46.20
59411;BME280;45215;32.610;-115.482;2022-07-04T11:24:21;100696.72;;;18.86;39.67
59411;BME280;45215;32.610;-115.482;2022-07-04T11:26:47;100698.91;;;18.75;46.89
59411;BME280;45215;32.610;-115.482;2022-07-04T11:29:13;100704.41;;;19.14;45.96
59411;BME280;45215;32.610;-115.482;2022-07-04T11:31:40;100702.59;;;18.90;39.88
59411;BME280;45215;32.610;-115.482;2022-07-04T11:34:07;100709.16;;;18.79;46.58
59411;BME280;45215;32.610;-115.482;2022-07-04T11:36:33;100711.28;;;19.16;45.85
59411;BME280;45215;32.610;-115.482;2022-07-04T11:39:00;100705.78;;;18.93;39.42
59411;BME280;45215;32.610;-115.482;2022-07-04T11:41:33;100713.69;;;18.87;47.30
59411;BME280;45215;32.610;-115.482;2022-07-04T11:44:19;100721.38;;;19.23;43.77
59411;BME280;45215;32.610;-115.482;2022-07-04T11:47:13;100721.59;;;18.80;40.38
59411;BME280;45215;32.610;-115.482;2022-07-04T11:49:44;100733.84;;;18.99;47.39
59411;BME280;45215;32.610;-115.482;2022-07-04T11:52:11;100730.44;;;19.22;42.60
59411;BME280;45215;32.610;-115.482;2022-07-04T11:54:38;100733.34;;;18.79;40.35
59411;BME280;45215;32.610;-115.482;2022-07-04T11:59:36;100735.66;;;19.23;42.53
59411;BME280;45215;32.610;-115.482;2022-07-04T12:02:11;100743.59;;;18.84;41.85
59411;BME280;45215;32.610;-115.482;2022-07-04T12:04:38;100740.03;;;19.08;46.93
59411;BME280;45215;32.610;-115.482;2022-07-04T12:07:17;100738.50;;;19.22;41.78
59411;BME280;45215;32.610;-115.482;2022-07-04T12:09:44;100742.75;;;18.83;44.02
59411;BME280;45215;32.610;-115.482;2022-07-04T12:12:10;100745.94;;;19.11;46.69
59411;BME280;45215;32.610;-115.482;2022-07-04T12:14:37;100753.31;;;19.18;41.08
59411;BME280;45215;32.610;-115.482;2022-07-04T12:17:10;100746.63;;;18.89;44.99
59411;BME280;45215;32.610;-115.482;2022-07-04T12:19:36;100755.66;;;19.21;46.37
59411;BME280;45215;32.610;-115.482;2022-07-04T12:22:02;100753.13;;;19.19;40.62
59411;BME280;45215;32.610;-115.482;2022-07-04T12:24:28;100755.19;;;18.92;45.11
59411;BME280;45215;32.610;-115.482;2022-07-04T12:26:53;100761.72;;;19.23;46.20
59411;BME280;45215;32.610;-115.482;2022-07-04T12:29:22;100754.31;;;19.16;40.10
59411;BME280;45215;32.610;-115.482;2022-07-04T12:31:50;100757.19;;;18.99;45.79
59411;BME280;45215;32.610;-115.482;2022-07-04T12:34:18;100765.44;;;19.30;45.94